createdAt,value
2023-04-18T00:01:28.812Z,30.05
2023-04-18T00:03:55.911Z,29.88
2023-04-18T00:06:22.456Z,31.25
2023-04-18T00:08:49.185Z,30.83
2023-04-18T00:11:15.756Z,31.13
2023-04-18T00:13:42.285Z,31.40
2023-04-18T00:16:08.935Z,30.40
2023-04-18T00:18:36.805Z,33.67
2023-04-18T00:21:04.347Z,32.85
2023-04-18T00:23:31.188Z,32.60
2023-04-18T00:25:57.740Z,33.38
2023-04-18T00:28:24.196Z,33.80
2023-04-18T00:30:50.923Z,33.80
2023-04-18T00:33:17.728Z,36.05
2023-04-18T00:35:44.321Z,34.47
2023-04-18T00:38:10.854Z,36.92
2023-04-18T00:40:38.247Z,39.67
2023-04-18T00:43:06.862Z,38.15
2023-04-18T00:45:33.296Z,35.85
2023-04-18T00:47:59.787Z,39.58
2023-04-18T00:50:26.440Z,39.20
2023-04-18T00:52:53.853Z,37.83
2023-04-18T00:55:21.416Z,39.72
2023-04-18T00:57:47.956Z,36.72
2023-04-18T01:00:15.106Z,37.78
2023-04-18T01:02:41.634Z,37.88
2023-04-18T01:05:08.730Z,39.05
2023-04-18T01:07:37.992Z,38.90
2023-04-18T01:10:05.101Z,38.38
2023-04-18T01:12:31.674Z,38.55
2023-04-18T01:14:58.808Z,39.28
2023-04-18T01:17:25.283Z,38.72
2023-04-18T01:19:51.739Z,38.20
2023-04-18T01:22:19.826Z,38.95
2023-04-18T01:24:46.419Z,39.80
2023-04-18T01:27:13.837Z,38.63
2023-04-18T01:29:41.076Z,38.67
2023-04-18T01:32:07.641Z,37.45
2023-04-18T01:34:34.127Z,37.85
2023-04-18T01:37:00.582Z,37.78
2023-04-18T01:39:27.206Z,39.10
2023-04-18T01:41:53.713Z,40.30
2023-04-18T01:44:20.408Z,38.53
2023-04-18T01:46:46.956Z,37.58
2023-04-18T01:49:13.663Z,39.83
2023-04-18T01:51:40.905Z,40.40
2023-04-18T01:54:07.425Z,39.67
2023-04-18T01:56:33.976Z,40.80
2023-04-18T01:59:00.421Z,39.15
2023-04-18T02:01:27.107Z,37.92
2023-04-18T02:03:53.981Z,38.65
2023-04-18T02:06:20.703Z,40.05
2023-04-18T02:08:47.278Z,36.55
2023-04-18T02:11:13.743Z,36.78
2023-04-18T02:13:40.221Z,39.58
2023-04-18T02:16:12.407Z,36.95
2023-04-18T02:18:40.096Z,36.78
2023-04-18T02:21:07.198Z,35.40
2023-04-18T02:23:33.687Z,37.05
2023-04-18T02:26:00.285Z,38.33
2023-04-18T02:28:26.676Z,34.15
2023-04-18T02:30:53.158Z,36.40
2023-04-18T02:33:19.594Z,36.65
2023-04-18T02:35:46.335Z,35.55
2023-04-18T02:38:13.776Z,36.88
2023-04-18T02:40:40.225Z,36.55
2023-04-18T02:43:06.665Z,36.42
2023-04-18T02:45:33.413Z,36.92
2023-04-18T02:48:01.273Z,35.40
2023-04-18T02:50:29.009Z,36.45
2023-04-18T02:52:55.877Z,38.20
2023-04-18T02:55:22.529Z,38.03
2023-04-18T02:57:49.171Z,39.60
2023-04-18T03:00:16.076Z,38.60
2023-04-18T03:02:42.626Z,36.05
2023-04-18T03:05:09.372Z,37.67
2023-04-18T03:07:35.952Z,36.47
2023-04-18T03:10:02.454Z,39.05
2023-04-18T03:12:28.887Z,36.67
2023-04-18T03:14:55.420Z,37.05
2023-04-18T03:17:22.076Z,37.00
2023-04-18T03:19:48.610Z,37.85
2023-04-18T03:22:15.839Z,35.85
2023-04-18T03:24:42.372Z,35.33
2023-04-18T03:27:08.839Z,36.67
2023-04-18T03:29:35.496Z,35.28
2023-04-18T03:32:02.032Z,35.83
2023-04-18T03:34:29.331Z,35.25
2023-04-18T03:36:56.035Z,35.10
2023-04-18T03:39:22.523Z,34.38
2023-04-18T03:41:49.778Z,34.53
2023-04-18T03:44:16.576Z,33.78
2023-04-18T03:46:43.183Z,36.00
2023-04-18T03:49:09.804Z,35.03
2023-04-18T03:51:43.727Z,36.15
2023-04-18T03:54:10.155Z,36.00
2023-04-18T03:56:36.740Z,36.05
2023-04-18T03:59:03.170Z,35.90
2023-04-18T04:01:29.730Z,33.85
2023-04-18T04:03:56.258Z,33.83
2023-04-18T04:06:22.803Z,32.83
2023-04-18T04:08:49.238Z,33.92
2023-04-18T04:11:15.791Z,35.50
2023-04-18T04:13:42.181Z,35.85
2023-04-18T04:16:08.726Z,33.72
2023-04-18T04:18:35.423Z,32.55
2023-04-18T04:21:03.624Z,36.00
2023-04-18T04:23:30.127Z,32.97
2023-04-18T04:25:56.570Z,33.33
2023-04-18T04:28:23.425Z,33.97
2023-04-18T04:30:53.798Z,34.15
2023-04-18T04:33:21.630Z,33.50
2023-04-18T04:35:48.182Z,35.13
2023-04-18T04:38:15.397Z,34.50
2023-04-18T04:40:42.582Z,33.78
2023-04-18T04:43:16.361Z,33.28
2023-04-18T04:45:49.582Z,33.95
2023-04-18T04:48:16.321Z,34.88
2023-04-18T04:50:57.912Z,34.10
2023-04-18T04:53:26.286Z,33.80
2023-04-18T04:55:52.762Z,34.22
2023-04-18T04:58:19.567Z,33.25
2023-04-18T05:00:46.195Z,32.60
2023-04-18T05:03:13.122Z,33.08
2023-04-18T05:05:39.728Z,32.13
2023-04-18T05:08:06.522Z,31.58
2023-04-18T05:10:33.113Z,31.23
2023-04-18T05:12:59.621Z,31.52
2023-04-18T05:15:26.062Z,31.08
2023-04-18T05:17:52.564Z,31.65
2023-04-18T05:20:19.133Z,31.40
2023-04-18T05:22:45.684Z,32.10
2023-04-18T05:25:12.635Z,29.65
2023-04-18T05:27:39.456Z,29.58
2023-04-18T05:30:06.778Z,30.08
2023-04-18T05:32:33.249Z,30.10
2023-04-18T05:34:59.877Z,25.88
2023-04-18T05:37:26.343Z,29.48
2023-04-18T05:39:52.861Z,27.08
2023-04-18T05:42:19.316Z,26.75
2023-04-18T05:44:45.821Z,25.38
2023-04-18T05:47:12.279Z,25.13
2023-04-18T05:49:38.763Z,26.15
2023-04-18T05:52:05.613Z,25.90
2023-04-18T05:54:32.109Z,25.45
2023-04-18T05:56:58.624Z,24.38
2023-04-18T05:59:26.697Z,26.30
2023-04-18T06:01:53.569Z,24.40
2023-04-18T06:04:21.287Z,23.23
2023-04-18T06:06:47.949Z,23.80
2023-04-18T06:09:14.432Z,22.17
2023-04-18T06:11:40.862Z,23.15
2023-04-18T06:14:07.770Z,21.90
2023-04-18T06:16:36.543Z,22.20
2023-04-18T06:19:03.699Z,22.17
2023-04-18T06:21:30.205Z,21.40
2023-04-18T06:23:56.727Z,21.50
2023-04-18T06:26:23.244Z,22.67
2023-04-18T06:28:49.665Z,22.10
2023-04-18T06:31:16.349Z,21.25
2023-04-18T06:33:42.814Z,21.20
2023-04-18T06:36:09.482Z,21.00
2023-04-18T06:38:35.937Z,20.58
2023-04-18T06:41:02.361Z,20.88
2023-04-18T06:43:28.938Z,20.85
2023-04-18T06:45:56.613Z,20.92
2023-04-18T06:48:23.445Z,20.17
2023-04-18T06:50:50.332Z,19.98
2023-04-18T06:53:16.804Z,20.42
2023-04-18T06:55:43.335Z,20.73
2023-04-18T06:58:10.143Z,24.67
2023-04-18T07:00:36.931Z,24.17
2023-04-18T07:03:11.062Z,19.98
2023-04-18T07:05:38.017Z,20.60
2023-04-18T07:08:04.585Z,19.13
2023-04-18T07:10:31.422Z,20.63
2023-04-18T07:12:57.997Z,19.88
2023-04-18T07:15:24.487Z,19.63
2023-04-18T07:17:51.159Z,18.85
2023-04-18T07:20:17.783Z,20.23
2023-04-18T07:22:44.337Z,19.75
2023-04-18T07:25:10.915Z,19.45
2023-04-18T07:27:37.631Z,20.08
2023-04-18T07:30:04.698Z,18.15
2023-04-18T07:32:31.644Z,19.77
2023-04-18T07:34:59.200Z,18.50
2023-04-18T07:37:26.194Z,19.25
2023-04-18T07:39:52.826Z,17.42
2023-04-18T07:42:19.370Z,19.95
2023-04-18T07:44:46.879Z,18.55
2023-04-18T07:47:13.383Z,19.02
2023-04-18T07:49:39.853Z,18.10
2023-04-18T07:52:06.426Z,19.58
2023-04-18T07:54:32.973Z,18.38
2023-04-18T07:56:59.647Z,19.38
2023-04-18T07:59:27.053Z,18.30
2023-04-18T08:01:53.713Z,18.27
2023-04-18T08:04:20.472Z,18.65
2023-04-18T08:06:47.081Z,18.50
2023-04-18T08:09:13.996Z,18.63
2023-04-18T08:11:42.186Z,20.48
2023-04-18T08:14:08.789Z,18.77
2023-04-18T08:16:35.867Z,19.48
2023-04-18T08:19:02.296Z,18.65
2023-04-18T08:21:28.764Z,18.55
2023-04-18T08:23:55.521Z,18.70
2023-04-18T08:26:42.163Z,19.13
2023-04-18T08:29:08.679Z,20.50
2023-04-18T08:31:35.269Z,19.30
2023-04-18T08:34:03.136Z,18.73
2023-04-18T08:36:31.577Z,20.80
2023-04-18T08:38:58.179Z,19.08
2023-04-18T08:41:25.913Z,20.85
2023-04-18T08:43:52.405Z,21.55
2023-04-18T08:46:19.659Z,20.23
2023-04-18T08:48:49.305Z,19.50
2023-04-18T08:51:15.836Z,19.27
2023-04-18T08:53:45.089Z,19.60
2023-04-18T08:56:14.609Z,19.10
2023-04-18T08:58:41.166Z,19.77
2023-04-18T09:01:07.685Z,20.35
2023-04-18T09:03:39.963Z,19.80
2023-04-18T09:06:08.347Z,18.38
2023-04-18T09:08:35.519Z,18.25
2023-04-18T09:11:26.207Z,19.05
2023-04-18T09:13:53.208Z,17.77
2023-04-18T09:16:22.400Z,19.50
2023-04-18T09:19:14.009Z,19.13
2023-04-18T09:21:44.428Z,19.80
2023-04-18T09:26:53.742Z,18.73
2023-04-18T09:29:23.691Z,18.20
2023-04-18T09:32:03.456Z,17.60
2023-04-18T09:34:30.372Z,18.88
2023-04-18T09:37:07.780Z,19.40
2023-04-18T09:39:34.352Z,19.48
2023-04-18T09:42:01.433Z,19.35
2023-04-18T09:44:28.172Z,21.02
2023-04-18T09:46:54.873Z,20.60
2023-04-18T09:49:22.028Z,20.42
2023-04-18T09:51:51.356Z,18.25
2023-04-18T09:54:19.614Z,18.40
2023-04-18T09:56:47.314Z,17.35
2023-04-18T09:59:18.650Z,16.67
2023-04-18T10:01:48.529Z,15.90
2023-04-18T10:04:17.204Z,17.42
2023-04-18T10:06:46.391Z,17.90
2023-04-18T10:09:14.540Z,18.55
2023-04-18T10:11:41.973Z,19.25
2023-04-18T10:14:13.268Z,18.67
2023-04-18T10:16:40.783Z,18.52
2023-04-18T10:19:27.279Z,16.98
2023-04-18T10:21:55.560Z,16.10
2023-04-18T10:24:53.420Z,16.42
2023-04-18T10:27:49.187Z,17.75
2023-04-18T10:30:16.708Z,17.15
2023-04-18T10:32:43.508Z,18.63
2023-04-18T10:35:11.140Z,17.25
2023-04-18T10:37:59.447Z,18.08
2023-04-18T10:43:00.867Z,16.77
2023-04-18T10:45:29.767Z,18.25
2023-04-18T10:48:22.700Z,18.08
2023-04-18T10:51:14.123Z,18.35
2023-04-18T10:53:48.048Z,19.00
2023-04-18T10:56:15.760Z,18.10
2023-04-18T10:58:47.837Z,17.60
2023-04-18T11:01:15.740Z,18.70
2023-04-18T11:03:42.378Z,17.77
2023-04-18T11:06:08.906Z,18.85
2023-04-18T11:08:35.770Z,19.40
2023-04-18T11:11:04.219Z,19.65
2023-04-18T11:13:31.714Z,19.08
2023-04-18T11:15:58.170Z,19.75
2023-04-18T11:18:24.701Z,19.23
2023-04-18T11:20:51.713Z,19.33
2023-04-18T11:23:24.871Z,18.60
2023-04-18T11:25:54.315Z,18.25
2023-04-18T11:28:21.963Z,18.05
2023-04-18T11:30:48.585Z,18.65
2023-04-18T11:33:15.334Z,17.88
2023-04-18T11:35:46.407Z,17.50
2023-04-18T11:38:14.992Z,17.23
2023-04-18T11:40:48.670Z,16.67
2023-04-18T11:43:20.851Z,16.05
2023-04-18T11:45:54.263Z,16.00
2023-04-18T11:48:20.883Z,17.33
2023-04-18T11:50:47.414Z,15.75
2023-04-18T11:53:13.828Z,15.32
2023-04-18T11:55:40.521Z,15.52
2023-04-18T11:58:07.115Z,15.55
2023-04-18T12:00:39.267Z,16.08
2023-04-18T12:03:14.405Z,15.77
2023-04-18T12:05:42.224Z,15.63
2023-04-18T12:08:12.092Z,15.07
2023-04-18T12:10:46.483Z,14.23
2023-04-18T12:13:13.169Z,14.52
2023-04-18T12:15:42.220Z,14.25
2023-04-18T12:18:08.992Z,14.35
2023-04-18T12:20:39.982Z,14.77
2023-04-18T12:23:06.667Z,14.07
2023-04-18T12:25:33.563Z,14.63
2023-04-18T12:28:02.830Z,14.27
2023-04-18T12:30:36.835Z,14.33
2023-04-18T12:33:04.908Z,14.10
2023-04-18T12:35:32.348Z,13.32
2023-04-18T12:38:01.084Z,14.13
2023-04-18T12:40:30.055Z,14.70
2023-04-18T12:42:56.683Z,13.38
2023-04-18T12:45:29.570Z,13.70
2023-04-18T12:47:56.181Z,13.70
2023-04-18T12:50:27.245Z,13.07
2023-04-18T12:52:55.727Z,14.13
2023-04-18T12:55:23.072Z,13.80
2023-04-18T12:57:52.151Z,13.02
2023-04-18T13:00:18.671Z,13.57
2023-04-18T13:02:46.172Z,13.88
2023-04-18T13:05:15.845Z,13.25
2023-04-18T13:07:45.096Z,13.10
2023-04-18T13:10:14.879Z,13.23
2023-04-18T13:12:41.660Z,12.77
2023-04-18T13:15:09.645Z,12.50
2023-04-18T13:17:37.341Z,12.88
2023-04-18T13:20:08.832Z,13.63
2023-04-18T13:22:35.760Z,13.20
2023-04-18T13:25:03.117Z,13.80
2023-04-18T13:27:29.735Z,12.95
2023-04-18T13:29:57.216Z,12.85
2023-04-18T13:32:24.376Z,12.20
2023-04-18T13:34:51.164Z,12.35
2023-04-18T13:37:17.655Z,11.55
2023-04-18T13:39:44.454Z,12.23
2023-04-18T13:42:10.936Z,11.35
2023-04-18T13:44:38.281Z,12.30
2023-04-18T13:47:06.222Z,12.10
2023-04-18T13:49:38.845Z,12.38
2023-04-18T13:52:08.074Z,12.50
2023-04-18T13:54:34.919Z,11.63
2023-04-18T13:57:03.253Z,11.52
2023-04-18T13:59:31.960Z,12.10
2023-04-18T14:01:58.927Z,12.02
2023-04-18T14:04:27.042Z,12.57
2023-04-18T14:06:53.881Z,11.45
2023-04-18T14:09:20.583Z,12.13
2023-04-18T14:11:49.538Z,12.25
2023-04-18T14:14:16.069Z,11.98
2023-04-18T14:16:42.623Z,11.70
2023-04-18T14:19:12.634Z,12.18
2023-04-18T14:21:39.590Z,11.70
2023-04-18T14:24:06.773Z,12.02
2023-04-18T14:26:33.255Z,11.82
2023-04-18T14:29:00.431Z,11.73
2023-04-18T14:31:28.178Z,11.73
2023-04-18T14:33:54.645Z,11.30
2023-04-18T14:36:21.242Z,11.82
2023-04-18T14:38:49.073Z,12.45
2023-04-18T14:41:16.467Z,11.75
2023-04-18T14:43:43.148Z,11.95
2023-04-18T14:46:16.645Z,12.45
2023-04-18T14:48:47.248Z,12.18
2023-04-18T14:51:15.887Z,13.73
2023-04-18T14:53:42.462Z,12.82
2023-04-18T14:56:11.848Z,13.05
2023-04-18T14:58:38.592Z,13.38
2023-04-18T15:01:05.427Z,13.05
2023-04-18T15:03:32.340Z,12.63
2023-04-18T15:05:59.375Z,12.93
2023-04-18T15:08:26.008Z,12.98
2023-04-18T15:10:52.619Z,12.93
2023-04-18T15:13:20.908Z,13.63
2023-04-18T15:15:55.054Z,13.65
2023-04-18T15:18:21.859Z,13.43
2023-04-18T15:20:51.799Z,13.27
2023-04-18T15:23:20.918Z,12.18
2023-04-18T15:25:47.648Z,11.65
2023-04-18T15:28:14.187Z,12.25
2023-04-18T15:30:40.799Z,13.05
2023-04-18T15:33:07.692Z,12.65
2023-04-18T15:35:34.238Z,12.30
2023-04-18T15:38:00.760Z,12.45
2023-04-18T15:40:27.326Z,14.25
2023-04-18T15:42:54.513Z,15.70
2023-04-18T15:45:21.839Z,13.35
2023-04-18T15:47:48.455Z,12.68
2023-04-18T15:50:16.361Z,13.75
2023-04-18T15:52:43.324Z,13.93
2023-04-18T15:55:13.404Z,13.05
2023-04-18T16:00:19.698Z,12.38
2023-04-18T16:02:46.721Z,12.98
2023-04-18T16:05:13.652Z,13.40
2023-04-18T16:07:41.229Z,14.10
2023-04-18T16:10:10.328Z,13.50
2023-04-18T16:12:39.550Z,13.32
2023-04-18T16:15:08.071Z,13.98
2023-04-18T16:17:36.701Z,17.77
2023-04-18T16:20:03.749Z,14.00
2023-04-18T16:22:30.578Z,13.27
2023-04-18T16:24:57.460Z,13.27
2023-04-18T16:27:23.923Z,13.95
2023-04-18T16:29:50.541Z,13.10
2023-04-18T16:32:17.259Z,12.70
2023-04-18T16:34:43.749Z,12.75
2023-04-18T16:37:10.219Z,13.98
2023-04-18T16:39:36.954Z,13.00
2023-04-18T16:42:03.796Z,12.55
2023-04-18T16:44:30.762Z,13.85
2023-04-18T16:46:57.324Z,12.70
2023-04-18T16:49:23.893Z,13.48
2023-04-18T16:51:50.993Z,13.30
2023-04-18T16:54:17.866Z,15.38
2023-04-18T16:56:44.825Z,14.43
2023-04-18T16:59:11.441Z,13.35
2023-04-18T17:01:38.145Z,16.98
2023-04-18T17:04:05.161Z,12.75
2023-04-18T17:06:32.564Z,12.55
2023-04-18T17:08:59.021Z,13.00
2023-04-18T17:11:26.403Z,11.77
2023-04-18T17:13:53.012Z,12.88
2023-04-18T17:16:19.500Z,12.07
2023-04-18T17:18:45.944Z,11.88
2023-04-18T17:21:12.579Z,12.27
2023-04-18T17:23:41.517Z,12.43
2023-04-18T17:26:09.014Z,12.60
2023-04-18T17:28:36.220Z,12.95
2023-04-18T17:31:02.875Z,12.45
2023-04-18T17:33:29.365Z,11.73
2023-04-18T17:35:55.994Z,12.27
2023-04-18T17:38:23.258Z,12.63
2023-04-18T17:40:58.032Z,11.90
2023-04-18T17:43:24.681Z,12.18
2023-04-18T17:45:51.461Z,13.02
2023-04-18T17:48:18.011Z,13.15
2023-04-18T17:50:44.584Z,13.40
2023-04-18T17:53:12.418Z,13.32
2023-04-18T17:55:40.290Z,13.63
2023-04-18T17:58:13.553Z,14.15
2023-04-18T18:00:40.082Z,13.25
2023-04-18T18:03:08.913Z,13.70
2023-04-18T18:05:35.570Z,12.85
2023-04-18T18:08:02.144Z,13.88
2023-04-18T18:10:29.117Z,14.25
2023-04-18T18:12:56.267Z,14.95
2023-04-18T18:15:24.212Z,14.45
2023-04-18T18:17:51.832Z,14.02
2023-04-18T18:20:19.148Z,14.75
2023-04-18T18:22:46.266Z,13.95
2023-04-18T18:25:13.072Z,14.18
2023-04-18T18:27:40.672Z,14.65
2023-04-18T18:30:08.091Z,14.88
2023-04-18T18:32:34.748Z,13.80
2023-04-18T18:35:01.773Z,15.75
2023-04-18T18:37:28.221Z,15.35
2023-04-18T18:39:56.155Z,16.27
2023-04-18T18:42:22.755Z,15.98
2023-04-18T18:44:49.300Z,14.32
2023-04-18T18:47:17.339Z,15.32
2023-04-18T18:49:43.863Z,14.57
2023-04-18T18:52:10.372Z,15.70
2023-04-18T18:54:36.866Z,16.13
2023-04-18T18:57:03.343Z,16.05
2023-04-18T18:59:29.927Z,16.60
2023-04-18T19:01:56.554Z,15.38
2023-04-18T19:04:24.830Z,15.27
2023-04-18T19:06:51.434Z,14.88
2023-04-18T19:09:17.863Z,15.23
2023-04-18T19:11:44.384Z,14.73
2023-04-18T19:14:10.848Z,15.48
2023-04-18T19:16:37.538Z,16.08
2023-04-18T19:19:04.272Z,15.25
2023-04-18T19:21:31.412Z,15.75
2023-04-18T19:23:57.880Z,16.00
2023-04-18T19:26:24.380Z,15.70
2023-04-18T19:28:50.823Z,15.65
2023-04-18T19:31:17.405Z,15.15
2023-04-18T19:33:43.924Z,14.95
2023-04-18T19:36:10.366Z,15.50
2023-04-18T19:38:36.890Z,16.23
2023-04-18T19:41:03.423Z,14.48
2023-04-18T19:43:29.864Z,15.93
2023-04-18T19:45:56.368Z,16.40
2023-04-18T19:48:22.881Z,15.98
2023-04-18T19:50:49.658Z,15.68
2023-04-18T19:53:16.348Z,15.43
2023-04-18T19:55:44.849Z,15.43
2023-04-18T19:58:11.391Z,16.10
2023-04-18T20:00:38.229Z,15.65
2023-04-18T20:03:05.118Z,15.73
2023-04-18T20:05:31.899Z,16.00
2023-04-18T20:07:58.400Z,16.02
2023-04-18T20:10:24.996Z,17.33
2023-04-18T20:12:51.796Z,16.45
2023-04-18T20:15:18.565Z,16.50
2023-04-18T20:17:45.142Z,16.45
2023-04-18T20:20:12.310Z,16.73
2023-04-18T20:22:41.752Z,16.25
2023-04-18T20:25:08.972Z,16.75
2023-04-18T20:27:35.759Z,16.80
2023-04-18T20:30:02.485Z,16.38
2023-04-18T20:32:29.127Z,17.27
2023-04-18T20:34:55.692Z,16.73
2023-04-18T20:37:22.307Z,17.42
2023-04-18T20:39:48.994Z,17.67
2023-04-18T20:42:15.901Z,19.08
2023-04-18T20:44:46.728Z,17.33
2023-04-18T20:47:15.526Z,18.98
2023-04-18T20:49:42.710Z,19.13
2023-04-18T20:52:09.645Z,20.10
2023-04-18T20:54:36.371Z,18.95
2023-04-18T20:57:05.497Z,18.85
2023-04-18T20:59:32.295Z,18.30
2023-04-18T21:01:59.008Z,18.02
2023-04-18T21:04:25.891Z,18.55
2023-04-18T21:06:52.513Z,17.02
2023-04-18T21:09:19.295Z,17.65
2023-04-18T21:11:45.966Z,18.33
2023-04-18T21:14:12.840Z,18.27
2023-04-18T21:16:39.849Z,19.00
2023-04-18T21:19:06.911Z,17.58
2023-04-18T21:21:34.387Z,18.35
2023-04-18T21:24:01.870Z,16.55
2023-04-18T21:26:28.679Z,15.77
2023-04-18T21:28:59.939Z,17.30
2023-04-18T21:31:28.700Z,16.90
2023-04-18T21:34:00.481Z,16.55
2023-04-18T21:36:28.018Z,16.10
2023-04-18T21:38:56.024Z,16.35
2023-04-18T21:41:23.762Z,15.95
2023-04-18T21:43:50.795Z,15.75
2023-04-18T21:46:18.272Z,16.25
2023-04-18T21:48:46.691Z,16.60
2023-04-18T21:51:15.026Z,16.17
2023-04-18T21:53:42.409Z,15.18
2023-04-18T21:56:09.012Z,15.65
2023-04-18T21:58:35.619Z,16.17
2023-04-18T22:01:02.447Z,15.18
2023-04-18T22:03:29.514Z,15.15
2023-04-18T22:05:56.713Z,16.05
2023-04-18T22:08:25.634Z,15.30
2023-04-18T22:10:56.219Z,15.27
2023-04-18T22:13:23.076Z,16.38
2023-04-18T22:15:51.452Z,15.70
2023-04-18T22:18:18.895Z,16.20
2023-04-18T22:20:47.340Z,15.68
2023-04-18T22:23:14.119Z,15.73
2023-04-18T22:25:40.832Z,16.65
2023-04-18T22:28:07.617Z,17.13
2023-04-18T22:30:34.452Z,15.82
2023-04-18T22:33:01.181Z,17.10
2023-04-18T22:35:27.919Z,16.50
2023-04-18T22:37:55.899Z,16.98
2023-04-18T22:40:22.584Z,16.33
2023-04-18T22:42:51.876Z,16.02
2023-04-18T22:45:19.403Z,17.03
2023-04-18T22:47:46.739Z,16.58
2023-04-18T22:50:14.146Z,16.23
2023-04-18T22:52:41.217Z,16.08
2023-04-18T22:55:08.549Z,15.70
2023-04-18T22:57:35.282Z,15.90
2023-04-18T23:00:01.876Z,17.13
2023-04-18T23:02:28.636Z,16.33
2023-04-18T23:05:01.378Z,16.50
2023-04-18T23:07:28.544Z,16.60
2023-04-18T23:09:55.067Z,16.60
2023-04-18T23:12:22.016Z,16.80
2023-04-18T23:14:48.766Z,15.80
2023-04-18T23:17:15.314Z,16.55
2023-04-18T23:19:41.802Z,15.38
2023-04-18T23:22:08.294Z,16.30
2023-04-18T23:24:34.760Z,15.45
2023-04-18T23:27:01.792Z,16.00
2023-04-18T23:29:28.418Z,15.57
2023-04-18T23:31:55.103Z,16.15
2023-04-18T23:34:21.740Z,16.08
2023-04-18T23:36:48.320Z,16.25
2023-04-18T23:39:14.988Z,17.05
2023-04-18T23:41:41.450Z,16.17
2023-04-18T23:44:07.945Z,17.55
2023-04-18T23:46:36.373Z,15.70
2023-04-18T23:49:03.478Z,16.08
2023-04-18T23:51:29.946Z,16.35
2023-04-18T23:53:56.469Z,16.42
2023-04-18T23:56:23.214Z,16.27
2023-04-18T23:58:50.545Z,16.42
